WAT5643 KATL-SAEZ
Flight info
| Callsign | WAT5643 |
|---|---|
| Flight time | N/A |
| Altitude | 35000 |
| Route | SMLTZ3 WALET DCT ZPLEN Q79 FEMID DCT DHP A509 URSUS UP406 BILSI UL795 BOPOL UR625 NEFTU UP525 PALUG/N0475F370 UP525 RCO UN420 KIMAL/N0464F380 UL793 GUA/N0381F240 W11 PAGON PAGON7X |
| Aircraft | A339/H-SADE1E2E3GHIJ5M1P2RWXY/LB2D1 |
Departure
| Time | 2026-05-06 14:32 |
|---|---|
| Airport | Hartsfield Jackson Atlanta International Airport (KATL) |
Arrival
| Time | N/A |
|---|---|
| Airport | Ezeiza International Airport - Ministro Pistarini (SAEZ) |
| Time | Latitude | Longitude | Altitude | Speed | Heading |
|---|---|---|---|---|---|
| 2026-05-06 13:57 | 33.64131 | -84.42471 | 1005 ft | 0 kts | 225° |
| 2026-05-06 14:17 | 33.64132 | -84.42471 | 1004 ft | 0 kts | 225° |
| 2026-05-06 14:17 | 33.64136 | -84.42466 | 1004 ft | 2 kts | 223° |
| 2026-05-06 14:17 | 33.64145 | -84.42456 | 1004 ft | 2 kts | 217° |
| 2026-05-06 14:18 | 33.64156 | -84.42447 | 1003 ft | 2 kts | 212° |
| 2026-05-06 14:18 | 33.64168 | -84.42439 | 1003 ft | 2 kts | 207° |
| 2026-05-06 14:18 | 33.64181 | -84.42432 | 1002 ft | 2 kts | 201° |
| 2026-05-06 14:18 | 33.64193 | -84.42426 | 1002 ft | 2 kts | 196° |
| 2026-05-06 14:19 | 33.64205 | -84.42423 | 1002 ft | 2 kts | 192° |
| 2026-05-06 14:19 | 33.64218 | -84.42419 | 1002 ft | 2 kts | 187° |
| 2026-05-06 14:19 | 33.64228 | -84.42419 | 1001 ft | 1 kts | 182° |
| 2026-05-06 14:19 | 33.64240 | -84.42418 | 1001 ft | 1 kts | 179° |
| 2026-05-06 14:20 | 33.64252 | -84.42418 | 1001 ft | 1 kts | 179° |
| 2026-05-06 14:20 | 33.64254 | -84.42418 | 1001 ft | 0 kts | 180° |
| 2026-05-06 14:23 | 33.64253 | -84.42418 | 1001 ft | 0 kts | 180° |
| 2026-05-06 14:23 | 33.64233 | -84.42414 | 1001 ft | 5 kts | 164° |
| 2026-05-06 14:24 | 33.64212 | -84.42390 | 1001 ft | 6 kts | 121° |
| 2026-05-06 14:24 | 33.64194 | -84.42333 | 999 ft | 9 kts | 98° |
| 2026-05-06 14:24 | 33.64215 | -84.42255 | 994 ft | 13 kts | 51° |
| 2026-05-06 14:24 | 33.64274 | -84.42180 | 988 ft | 15 kts | 39° |
| 2026-05-06 14:25 | 33.64361 | -84.42145 | 986 ft | 16 kts | 2° |
| 2026-05-06 14:25 | 33.64455 | -84.42148 | 986 ft | 13 kts | 359° |
| 2026-05-06 14:25 | 33.64525 | -84.42135 | 985 ft | 10 kts | 35° |
| 2026-05-06 14:25 | 33.64539 | -84.42053 | 982 ft | 13 kts | 89° |
| 2026-05-06 14:26 | 33.64540 | -84.41953 | 980 ft | 15 kts | 89° |
| 2026-05-06 14:26 | 33.64541 | -84.41870 | 978 ft | 16 kts | 89° |
| 2026-05-06 14:26 | 33.64542 | -84.41780 | 978 ft | 16 kts | 90° |
| 2026-05-06 14:26 | 33.64542 | -84.41653 | 978 ft | 16 kts | 90° |
| 2026-05-06 14:27 | 33.64542 | -84.41523 | 978 ft | 16 kts | 90° |
| 2026-05-06 14:27 | 33.64542 | -84.41399 | 981 ft | 9 kts | 90° |
| 2026-05-06 14:27 | 33.64542 | -84.41335 | 982 ft | 8 kts | 90° |
| 2026-05-06 14:27 | 33.64542 | -84.41276 | 982 ft | 9 kts | 90° |
| 2026-05-06 14:28 | 33.64542 | -84.41214 | 982 ft | 9 kts | 90° |
| 2026-05-06 14:28 | 33.64542 | -84.41164 | 983 ft | 9 kts | 90° |
| 2026-05-06 14:28 | 33.64542 | -84.41097 | 984 ft | 8 kts | 90° |
| 2026-05-06 14:28 | 33.64542 | -84.41030 | 985 ft | 7 kts | 90° |
| 2026-05-06 14:29 | 33.64542 | -84.40967 | 984 ft | 9 kts | 90° |
| 2026-05-06 14:29 | 33.64543 | -84.40890 | 983 ft | 11 kts | 89° |
| 2026-05-06 14:29 | 33.64550 | -84.40809 | 983 ft | 9 kts | 66° |
| 2026-05-06 14:29 | 33.64570 | -84.40744 | 984 ft | 9 kts | 86° |
| 2026-05-06 14:30 | 33.64571 | -84.40669 | 983 ft | 11 kts | 89° |
| 2026-05-06 14:30 | 33.64583 | -84.40585 | 982 ft | 9 kts | 55° |
| 2026-05-06 14:30 | 33.64622 | -84.40567 | 983 ft | 6 kts | 8° |
| 2026-05-06 14:30 | 33.64654 | -84.40566 | 984 ft | 3 kts | 355° |
| 2026-05-06 14:31 | 33.64665 | -84.40573 | 985 ft | 1 kts | 313° |
| 2026-05-06 14:31 | 33.64675 | -84.40635 | 986 ft | 29 kts | 275° |
| 2026-05-06 14:31 | 33.64675 | -84.40994 | 990 ft | 77 kts | 269° |
| 2026-05-06 14:32 | 33.64670 | -84.42522 | 997 ft | 156 kts | 269° |
| 2026-05-06 14:32 | 33.64658 | -84.43710 | 1088 ft | 182 kts | 267° |
| 2026-05-06 14:32 | 33.64673 | -84.45005 | 1587 ft | 181 kts | 269° |
| 2026-05-06 14:32 | 33.64732 | -84.46237 | 2146 ft | 178 kts | 274° |
| 2026-05-06 14:33 | 33.64917 | -84.47422 | 2752 ft | 174 kts | 278° |
| 2026-05-06 14:33 | 33.65150 | -84.48597 | 3178 ft | 177 kts | 279° |
| 2026-05-06 14:33 | 33.65387 | -84.49784 | 3370 ft | 186 kts | 279° |
| 2026-05-06 14:33 | 33.65638 | -84.51072 | 3574 ft | 198 kts | 279° |
| 2026-05-06 14:34 | 33.65888 | -84.52388 | 3784 ft | 209 kts | 279° |
| 2026-05-06 14:34 | 33.66173 | -84.53907 | 4014 ft | 221 kts | 279° |
| 2026-05-06 14:34 | 33.66483 | -84.55569 | 4260 ft | 234 kts | 279° |
| 2026-05-06 14:34 | 33.66740 | -84.57237 | 4549 ft | 242 kts | 270° |
| 2026-05-06 14:35 | 33.66608 | -84.58792 | 4940 ft | 244 kts | 254° |
| 2026-05-06 14:35 | 33.66136 | -84.60154 | 5373 ft | 246 kts | 242° |
| 2026-05-06 14:35 | 33.65380 | -84.61728 | 5875 ft | 248 kts | 243° |
| 2026-05-06 14:35 | 33.64589 | -84.63364 | 6383 ft | 250 kts | 243° |
| 2026-05-06 14:36 | 33.63750 | -84.64944 | 6911 ft | 252 kts | 234° |
| 2026-05-06 14:36 | 33.62664 | -84.66221 | 7391 ft | 258 kts | 221° |
| 2026-05-06 14:36 | 33.61301 | -84.67264 | 7937 ft | 260 kts | 215° |
| 2026-05-06 14:36 | 33.59881 | -84.68238 | 8468 ft | 261 kts | 214° |
| 2026-05-06 14:37 | 33.58387 | -84.69141 | 8962 ft | 267 kts | 204° |
| 2026-05-06 14:37 | 33.56685 | -84.69499 | 9455 ft | 279 kts | 187° |
| 2026-05-06 14:37 | 33.54945 | -84.69288 | 9945 ft | 286 kts | 179° |
| 2026-05-06 14:37 | 33.53176 | -84.68940 | 10396 ft | 288 kts | 178° |
| 2026-05-06 14:38 | 33.51362 | -84.68573 | 10843 ft | 291 kts | 178° |
| 2026-05-06 14:38 | 33.49515 | -84.68208 | 11308 ft | 293 kts | 179° |
| 2026-05-06 14:38 | 33.47690 | -84.67857 | 11756 ft | 296 kts | 179° |
| 2026-05-06 14:38 | 33.45787 | -84.67495 | 12207 ft | 299 kts | 179° |
| 2026-05-06 14:39 | 33.44050 | -84.67165 | 12603 ft | 302 kts | 178° |
| 2026-05-06 14:39 | 33.42358 | -84.66585 | 12976 ft | 316 kts | 163° |
| 2026-05-06 14:39 | 33.40842 | -84.65507 | 13327 ft | 330 kts | 148° |
| 2026-05-06 14:39 | 33.39373 | -84.63917 | 13536 ft | 345 kts | 142° |
| 2026-05-06 14:40 | 33.37946 | -84.62209 | 13723 ft | 356 kts | 141° |
| 2026-05-06 14:40 | 33.36596 | -84.60560 | 13893 ft | 366 kts | 140° |
| 2026-05-06 14:40 | 33.35364 | -84.59059 | 14042 ft | 375 kts | 140° |
| 2026-05-06 14:40 | 33.33364 | -84.56648 | 14278 ft | 388 kts | 140° |
| 2026-05-06 14:41 | 33.31871 | -84.54861 | 14447 ft | 397 kts | 140° |
| 2026-05-06 14:41 | 33.30271 | -84.52961 | 14627 ft | 407 kts | 140° |
| 2026-05-06 14:41 | 33.28623 | -84.51009 | 14929 ft | 412 kts | 140° |
| 2026-05-06 14:41 | 33.26990 | -84.49076 | 15298 ft | 415 kts | 140° |
| 2026-05-06 14:42 | 33.25311 | -84.47096 | 15677 ft | 418 kts | 140° |
| 2026-05-06 14:42 | 33.23660 | -84.45146 | 16026 ft | 421 kts | 140° |
| 2026-05-06 14:42 | 33.21956 | -84.43137 | 16397 ft | 425 kts | 140° |
| 2026-05-06 14:42 | 33.20321 | -84.41215 | 16755 ft | 428 kts | 140° |
| 2026-05-06 14:43 | 33.18502 | -84.39079 | 17111 ft | 432 kts | 141° |
| 2026-05-06 14:43 | 33.16588 | -84.36832 | 17523 ft | 436 kts | 140° |
| 2026-05-06 14:43 | 33.14668 | -84.34580 | 17920 ft | 439 kts | 141° |
| 2026-05-06 14:43 | 33.12752 | -84.32335 | 18327 ft | 442 kts | 140° |
| 2026-05-06 14:44 | 33.10751 | -84.29992 | 18711 ft | 446 kts | 140° |
| 2026-05-06 14:44 | 33.08766 | -84.27669 | 19104 ft | 449 kts | 140° |
| 2026-05-06 14:44 | 33.06789 | -84.25352 | 19472 ft | 453 kts | 141° |
| 2026-05-06 14:45 | 33.02787 | -84.20675 | 20243 ft | 458 kts | 141° |
| 2026-05-06 14:45 | 33.00646 | -84.18451 | 20595 ft | 456 kts | 149° |
| 2026-05-06 14:45 | 32.98263 | -84.16666 | 20944 ft | 451 kts | 159° |
| 2026-05-06 14:45 | 32.95732 | -84.15363 | 21295 ft | 446 kts | 167° |
| 2026-05-06 14:46 | 32.93074 | -84.14265 | 21619 ft | 448 kts | 168° |
| 2026-05-06 14:46 | 32.90465 | -84.13242 | 21933 ft | 451 kts | 168° |
| 2026-05-06 14:46 | 32.88020 | -84.12283 | 22206 ft | 454 kts | 168° |
| 2026-05-06 14:46 | 32.85529 | -84.11294 | 22497 ft | 457 kts | 168° |
| 2026-05-06 14:47 | 32.83022 | -84.10285 | 22837 ft | 458 kts | 168° |
| 2026-05-06 14:47 | 32.80524 | -84.09267 | 23435 ft | 452 kts | 168° |
| 2026-05-06 14:47 | 32.78100 | -84.08271 | 23957 ft | 448 kts | 168° |
| 2026-05-06 14:47 | 32.75658 | -84.07269 | 24295 ft | 449 kts | 168° |
| 2026-05-06 14:48 | 32.73163 | -84.06248 | 24571 ft | 451 kts | 168° |
| 2026-05-06 14:48 | 32.70726 | -84.05253 | 24802 ft | 454 kts | 168° |
| 2026-05-06 14:48 | 32.68222 | -84.04228 | 25053 ft | 457 kts | 168° |
| 2026-05-06 14:48 | 32.65716 | -84.03203 | 25306 ft | 459 kts | 168° |
| 2026-05-06 14:49 | 32.63189 | -84.02168 | 25563 ft | 461 kts | 168° |
| 2026-05-06 14:49 | 32.60693 | -84.01148 | 25831 ft | 463 kts | 168° |
| 2026-05-06 14:49 | 32.58178 | -84.00120 | 26065 ft | 465 kts | 168° |
| 2026-05-06 14:49 | 32.55619 | -83.99071 | 26316 ft | 467 kts | 168° |
| 2026-05-06 14:50 | 32.53033 | -83.98015 | 26565 ft | 469 kts | 168° |
| 2026-05-06 14:50 | 32.50492 | -83.96980 | 26786 ft | 471 kts | 168° |
| 2026-05-06 14:50 | 32.47912 | -83.95927 | 27012 ft | 473 kts | 168° |
| 2026-05-06 14:50 | 32.45303 | -83.94864 | 27236 ft | 475 kts | 168° |
| 2026-05-06 14:51 | 32.42720 | -83.93810 | 27454 ft | 477 kts | 168° |
| 2026-05-06 14:51 | 32.40101 | -83.92743 | 27676 ft | 479 kts | 168° |
| 2026-05-06 14:51 | 32.37423 | -83.91652 | 27923 ft | 480 kts | 168° |
| 2026-05-06 14:51 | 32.34784 | -83.90650 | 28150 ft | 480 kts | 170° |
| 2026-05-06 14:52 | 32.32107 | -83.89682 | 28342 ft | 482 kts | 171° |
| 2026-05-06 14:52 | 32.29476 | -83.88739 | 28566 ft | 483 kts | 171° |
| 2026-05-06 14:52 | 32.26792 | -83.87779 | 28798 ft | 484 kts | 171° |
| 2026-05-06 14:52 | 32.24110 | -83.86820 | 28996 ft | 486 kts | 171° |
| 2026-05-06 14:53 | 32.21412 | -83.85856 | 29193 ft | 488 kts | 171° |
| 2026-05-06 14:53 | 32.18708 | -83.84889 | 29412 ft | 490 kts | 171° |
| 2026-05-06 14:53 | 32.15757 | -83.83836 | 29631 ft | 492 kts | 171° |
| 2026-05-06 14:53 | 32.12696 | -83.82742 | 29827 ft | 494 kts | 171° |
| 2026-05-06 14:54 | 32.09523 | -83.81609 | 30054 ft | 496 kts | 171° |
| 2026-05-06 14:54 | 32.06386 | -83.80487 | 30273 ft | 498 kts | 171° |
| 2026-05-06 14:54 | 32.03211 | -83.79354 | 30500 ft | 500 kts | 171° |
| 2026-05-06 14:54 | 32.00023 | -83.78217 | 30718 ft | 501 kts | 171° |
| 2026-05-06 14:55 | 31.96852 | -83.77088 | 30929 ft | 503 kts | 171° |
| 2026-05-06 14:55 | 31.93576 | -83.75922 | 31142 ft | 505 kts | 171° |
| 2026-05-06 14:55 | 31.90227 | -83.74730 | 31354 ft | 507 kts | 171° |
| 2026-05-06 14:55 | 31.87081 | -83.73611 | 31537 ft | 509 kts | 171° |
| 2026-05-06 14:56 | 31.83875 | -83.72470 | 31726 ft | 510 kts | 171° |
| 2026-05-06 14:56 | 31.80530 | -83.71283 | 31956 ft | 511 kts | 171° |
| 2026-05-06 14:56 | 31.77158 | -83.70086 | 32152 ft | 513 kts | 171° |
| 2026-05-06 14:56 | 31.73913 | -83.68938 | 32324 ft | 515 kts | 171° |
| 2026-05-06 14:57 | 31.70792 | -83.67831 | 32483 ft | 516 kts | 171° |
| 2026-05-06 14:57 | 31.67438 | -83.66629 | 32748 ft | 517 kts | 170° |
| 2026-05-06 14:57 | 31.64109 | -83.65363 | 33008 ft | 517 kts | 169° |
| 2026-05-06 14:57 | 31.60741 | -83.64056 | 33311 ft | 516 kts | 169° |
| 2026-05-06 14:58 | 31.57432 | -83.62769 | 33602 ft | 515 kts | 169° |
| 2026-05-06 14:58 | 31.54175 | -83.61508 | 33838 ft | 516 kts | 169° |
| 2026-05-06 14:58 | 31.50878 | -83.60236 | 34055 ft | 516 kts | 169° |
| 2026-05-06 14:58 | 31.47536 | -83.58954 | 34272 ft | 517 kts | 169° |
| 2026-05-06 14:59 | 31.44233 | -83.57690 | 34473 ft | 518 kts | 169° |
| 2026-05-06 14:59 | 31.40892 | -83.56412 | 34630 ft | 519 kts | 169° |
| 2026-05-06 14:59 | 31.37571 | -83.55145 | 34829 ft | 520 kts | 169° |
| 2026-05-06 14:59 | 31.34203 | -83.53858 | 35038 ft | 520 kts | 169° |
| 2026-05-06 15:00 | 31.30870 | -83.52587 | 35075 ft | 521 kts | 169° |
| 2026-05-06 15:00 | 31.24255 | -83.50065 | 35075 ft | 521 kts | 169° |
| 2026-05-06 15:01 | 31.17668 | -83.47559 | 35071 ft | 521 kts | 169° |
| 2026-05-06 15:01 | 31.11072 | -83.45053 | 35069 ft | 522 kts | 169° |
| 2026-05-06 15:02 | 31.04460 | -83.42543 | 35070 ft | 522 kts | 169° |
| 2026-05-06 15:02 | 30.97897 | -83.40055 | 35072 ft | 521 kts | 169° |
| 2026-05-06 15:03 | 30.91282 | -83.37554 | 35073 ft | 521 kts | 169° |
| 2026-05-06 15:03 | 30.84614 | -83.35037 | 35074 ft | 521 kts | 169° |
| 2026-05-06 15:04 | 30.78100 | -83.32582 | 35075 ft | 521 kts | 169° |
| 2026-05-06 15:04 | 30.71382 | -83.29950 | 35075 ft | 525 kts | 166° |
| 2026-05-06 15:05 | 30.64798 | -83.26614 | 35076 ft | 528 kts | 161° |
| 2026-05-06 15:05 | 30.58522 | -83.23204 | 35072 ft | 529 kts | 161° |
| 2026-05-06 15:06 | 30.52971 | -83.20198 | 35072 ft | 529 kts | 161° |
| 2026-05-06 15:06 | 30.46952 | -83.16959 | 35067 ft | 529 kts | 161° |
| 2026-05-06 15:07 | 30.40593 | -83.13546 | 35068 ft | 530 kts | 161° |
| 2026-05-06 15:07 | 30.34240 | -83.10144 | 35066 ft | 529 kts | 161° |
| 2026-05-06 15:08 | 30.27621 | -83.06603 | 35066 ft | 530 kts | 161° |
| 2026-05-06 15:08 | 30.21004 | -83.03069 | 35064 ft | 530 kts | 161° |
| 2026-05-06 15:09 | 30.14474 | -82.99588 | 35064 ft | 530 kts | 161° |
| 2026-05-06 15:09 | 30.07860 | -82.96069 | 35063 ft | 531 kts | 161° |
| 2026-05-06 15:10 | 30.01293 | -82.92573 | 35064 ft | 530 kts | 161° |
| 2026-05-06 15:10 | 29.94658 | -82.89056 | 35063 ft | 530 kts | 161° |
| 2026-05-06 15:11 | 29.88115 | -82.85586 | 35064 ft | 530 kts | 160° |
| 2026-05-06 15:11 | 29.81473 | -82.82067 | 35067 ft | 529 kts | 161° |
| 2026-05-06 15:12 | 29.74825 | -82.78554 | 35070 ft | 529 kts | 161° |
| 2026-05-06 15:12 | 29.68219 | -82.75067 | 35070 ft | 529 kts | 161° |
| 2026-05-06 15:13 | 29.61599 | -82.71580 | 35071 ft | 529 kts | 160° |
| 2026-05-06 15:13 | 29.55023 | -82.68119 | 35072 ft | 528 kts | 160° |
| 2026-05-06 15:14 | 29.48418 | -82.64649 | 35070 ft | 528 kts | 160° |
| 2026-05-06 15:14 | 29.41903 | -82.61231 | 35071 ft | 527 kts | 160° |
| 2026-05-06 15:15 | 29.35479 | -82.57865 | 35070 ft | 527 kts | 160° |
| 2026-05-06 15:15 | 29.29031 | -82.54681 | 35070 ft | 524 kts | 165° |
| 2026-05-06 15:16 | 29.22396 | -82.52302 | 35070 ft | 517 kts | 172° |
| 2026-05-06 15:16 | 29.15601 | -82.50806 | 35076 ft | 511 kts | 177° |
| 2026-05-06 15:17 | 29.08682 | -82.49593 | 35077 ft | 511 kts | 177° |
| 2026-05-06 15:17 | 29.01866 | -82.48383 | 35076 ft | 510 kts | 177° |
| 2026-05-06 15:18 | 28.95165 | -82.47179 | 35083 ft | 511 kts | 177° |
| 2026-05-06 15:18 | 28.88924 | -82.46052 | 35075 ft | 511 kts | 177° |
| 2026-05-06 15:19 | 28.82090 | -82.44817 | 35079 ft | 510 kts | 177° |
| 2026-05-06 15:19 | 28.75397 | -82.43610 | 35076 ft | 510 kts | 177° |
| 2026-05-06 15:20 | 28.68613 | -82.42389 | 35074 ft | 510 kts | 177° |
| 2026-05-06 15:20 | 28.61809 | -82.41165 | 35070 ft | 510 kts | 177° |
| 2026-05-06 15:21 | 28.55087 | -82.39957 | 35074 ft | 509 kts | 176° |
| 2026-05-06 15:21 | 28.48578 | -82.38790 | 35069 ft | 510 kts | 176° |
| 2026-05-06 15:22 | 28.41841 | -82.37584 | 35071 ft | 510 kts | 176° |
| 2026-05-06 15:22 | 28.35047 | -82.36368 | 35071 ft | 510 kts | 176° |
| 2026-05-06 15:23 | 28.28221 | -82.35148 | 35071 ft | 509 kts | 176° |
| 2026-05-06 15:23 | 28.21473 | -82.33944 | 35073 ft | 508 kts | 177° |
| 2026-05-06 15:24 | 28.14829 | -82.32761 | 35074 ft | 509 kts | 177° |
| 2026-05-06 15:24 | 28.08077 | -82.31562 | 35073 ft | 509 kts | 177° |
| 2026-05-06 15:25 | 28.01457 | -82.30067 | 35071 ft | 513 kts | 171° |
| 2026-05-06 15:25 | 27.94901 | -82.27891 | 35075 ft | 516 kts | 168° |
| 2026-05-06 15:26 | 27.88447 | -82.25654 | 35075 ft | 515 kts | 168° |
| 2026-05-06 15:26 | 27.81934 | -82.23412 | 35076 ft | 515 kts | 168° |
| 2026-05-06 15:27 | 27.75252 | -82.21127 | 35073 ft | 515 kts | 168° |
| 2026-05-06 15:27 | 27.68585 | -82.18853 | 35069 ft | 515 kts | 168° |
| 2026-05-06 15:28 | 27.61856 | -82.16560 | 35066 ft | 515 kts | 168° |
| 2026-05-06 15:28 | 27.55143 | -82.14278 | 35065 ft | 515 kts | 168° |
| 2026-05-06 15:29 | 27.48622 | -82.12061 | 35065 ft | 515 kts | 168° |
| 2026-05-06 15:29 | 27.41931 | -82.09792 | 35064 ft | 515 kts | 168° |
| 2026-05-06 15:30 | 27.35199 | -82.07511 | 35064 ft | 515 kts | 167° |
| 2026-05-06 15:30 | 27.28548 | -82.05259 | 35063 ft | 515 kts | 168° |
| 2026-05-06 15:31 | 27.22069 | -82.03070 | 35064 ft | 515 kts | 167° |
| 2026-05-06 15:31 | 27.15494 | -82.00852 | 35066 ft | 515 kts | 167° |
| 2026-05-06 15:32 | 27.05639 | -81.97182 | 35070 ft | 518 kts | 161° |
| 2026-05-06 15:32 | 26.99356 | -81.93903 | 35073 ft | 519 kts | 157° |
| 2026-05-06 15:33 | 26.93213 | -81.90497 | 35075 ft | 519 kts | 157° |
| 2026-05-06 15:33 | 26.87069 | -81.87106 | 35077 ft | 519 kts | 157° |
| 2026-05-06 15:34 | 26.80839 | -81.83688 | 35073 ft | 519 kts | 156° |
| 2026-05-06 15:34 | 26.74583 | -81.80265 | 35073 ft | 519 kts | 157° |
| 2026-05-06 15:35 | 26.68517 | -81.76952 | 35070 ft | 519 kts | 156° |
| 2026-05-06 15:35 | 26.62295 | -81.73557 | 35069 ft | 519 kts | 156° |
| 2026-05-06 15:36 | 26.56263 | -81.70271 | 35069 ft | 519 kts | 156° |
| 2026-05-06 15:36 | 26.50824 | -81.67309 | 35067 ft | 519 kts | 156° |
| 2026-05-06 15:37 | 26.44342 | -81.63785 | 35067 ft | 519 kts | 156° |
| 2026-05-06 15:37 | 26.37988 | -81.60335 | 35063 ft | 518 kts | 156° |
| 2026-05-06 15:38 | 26.31570 | -81.56854 | 35061 ft | 518 kts | 156° |
| 2026-05-06 15:38 | 26.25108 | -81.53357 | 35061 ft | 519 kts | 156° |
| 2026-05-06 15:39 | 26.18764 | -81.49821 | 35057 ft | 520 kts | 150° |
| 2026-05-06 15:39 | 26.13197 | -81.44891 | 35065 ft | 523 kts | 133° |
| 2026-05-06 15:40 | 26.09032 | -81.38313 | 35056 ft | 521 kts | 114° |
| 2026-05-06 15:40 | 26.06567 | -81.30814 | 35048 ft | 516 kts | 104° |
| 2026-05-06 15:41 | 26.04597 | -81.23240 | 35047 ft | 516 kts | 103° |
| 2026-05-06 15:41 | 26.02556 | -81.15615 | 35047 ft | 516 kts | 104° |
| 2026-05-06 15:42 | 26.00459 | -81.07973 | 35045 ft | 515 kts | 104° |
| 2026-05-06 15:42 | 25.98363 | -81.00404 | 35043 ft | 515 kts | 104° |
| 2026-05-06 15:43 | 25.96252 | -80.92804 | 35043 ft | 515 kts | 104° |
| 2026-05-06 15:43 | 25.94148 | -80.85242 | 35047 ft | 516 kts | 104° |
| 2026-05-06 15:44 | 25.92067 | -80.77792 | 35050 ft | 516 kts | 104° |
| 2026-05-06 15:44 | 25.90017 | -80.70466 | 35056 ft | 516 kts | 104° |
| 2026-05-06 15:45 | 25.87934 | -80.63032 | 35056 ft | 515 kts | 104° |
| 2026-05-06 15:45 | 25.85823 | -80.55518 | 35069 ft | 514 kts | 104° |
| 2026-05-06 15:46 | 25.83730 | -80.48089 | 35074 ft | 514 kts | 104° |
| 2026-05-06 15:46 | 25.81410 | -80.41289 | 35080 ft | 517 kts | 114° |
| 2026-05-06 15:47 | 25.77710 | -80.34940 | 35080 ft | 521 kts | 129° |
| 2026-05-06 15:47 | 25.72830 | -80.29672 | 35079 ft | 521 kts | 143° |
| 2026-05-06 15:48 | 25.66873 | -80.25287 | 35082 ft | 521 kts | 148° |
| 2026-05-06 15:48 | 25.60759 | -80.20997 | 35081 ft | 522 kts | 148° |
| 2026-05-06 15:49 | 25.54682 | -80.16635 | 35080 ft | 522 kts | 147° |
| 2026-05-06 15:49 | 25.48560 | -80.12228 | 35075 ft | 522 kts | 147° |
| 2026-05-06 15:50 | 25.42481 | -80.07860 | 35072 ft | 522 kts | 147° |
| 2026-05-06 15:50 | 25.36431 | -80.03520 | 35072 ft | 521 kts | 147° |
| 2026-05-06 15:51 | 25.30315 | -79.99138 | 35069 ft | 520 kts | 147° |
| 2026-05-06 15:51 | 25.24217 | -79.94772 | 35067 ft | 521 kts | 147° |
| 2026-05-06 15:52 | 25.18125 | -79.90415 | 35063 ft | 521 kts | 147° |
| 2026-05-06 15:52 | 25.12029 | -79.86062 | 35061 ft | 521 kts | 147° |
| 2026-05-06 15:53 | 25.05880 | -79.81674 | 35062 ft | 521 kts | 147° |
| 2026-05-06 15:53 | 24.99817 | -79.77354 | 35059 ft | 520 kts | 147° |
| 2026-05-06 15:54 | 24.93748 | -79.73037 | 35059 ft | 521 kts | 147° |
| 2026-05-06 15:54 | 24.87676 | -79.68720 | 35057 ft | 520 kts | 146° |
| 2026-05-06 15:55 | 24.81612 | -79.64417 | 35058 ft | 520 kts | 146° |
| 2026-05-06 15:55 | 24.75532 | -79.60104 | 35060 ft | 521 kts | 146° |
| 2026-05-06 15:56 | 24.69441 | -79.55789 | 35063 ft | 521 kts | 146° |
| 2026-05-06 15:56 | 24.63365 | -79.51493 | 35064 ft | 521 kts | 146° |
| 2026-05-06 15:57 | 24.57253 | -79.47174 | 35062 ft | 520 kts | 146° |
| 2026-05-06 15:57 | 24.51152 | -79.42870 | 35065 ft | 520 kts | 146° |
| 2026-05-06 15:58 | 24.45087 | -79.38593 | 35069 ft | 520 kts | 146° |
| 2026-05-06 15:58 | 24.39015 | -79.34319 | 35066 ft | 520 kts | 146° |
| 2026-05-06 15:59 | 24.32875 | -79.30001 | 35066 ft | 519 kts | 146° |
| 2026-05-06 15:59 | 24.26849 | -79.25768 | 35065 ft | 519 kts | 146° |
| 2026-05-06 16:00 | 24.20829 | -79.21546 | 35066 ft | 519 kts | 146° |
| 2026-05-06 16:00 | 24.15863 | -79.18067 | 35065 ft | 519 kts | 146° |
| 2026-05-06 16:01 | 24.09761 | -79.13795 | 35065 ft | 519 kts | 146° |
| 2026-05-06 16:01 | 24.03558 | -79.09904 | 35061 ft | 519 kts | 153° |
| 2026-05-06 16:02 | 23.96816 | -79.06866 | 35061 ft | 520 kts | 161° |
| 2026-05-06 16:02 | 23.89840 | -79.04868 | 35062 ft | 520 kts | 170° |
| 2026-05-06 16:03 | 23.82741 | -79.03488 | 35060 ft | 519 kts | 171° |
| 2026-05-06 16:03 | 23.75620 | -79.02119 | 35060 ft | 518 kts | 171° |
| 2026-05-06 16:04 | 23.68541 | -79.00735 | 35061 ft | 518 kts | 170° |
| 2026-05-06 16:04 | 23.61496 | -78.99345 | 35059 ft | 517 kts | 170° |
| 2026-05-06 16:05 | 23.54381 | -78.97939 | 35059 ft | 517 kts | 170° |
| 2026-05-06 16:05 | 23.47303 | -78.96544 | 35060 ft | 518 kts | 170° |
| 2026-05-06 16:06 | 23.40256 | -78.95159 | 35060 ft | 517 kts | 170° |
| 2026-05-06 16:06 | 23.33168 | -78.93765 | 35061 ft | 515 kts | 170° |
| 2026-05-06 16:07 | 23.26156 | -78.92203 | 35059 ft | 515 kts | 164° |
| 2026-05-06 16:07 | 23.19479 | -78.89619 | 35058 ft | 514 kts | 155° |
| 2026-05-06 16:08 | 23.13202 | -78.85865 | 35051 ft | 512 kts | 144° |
| 2026-05-06 16:08 | 23.07570 | -78.81326 | 35045 ft | 512 kts | 140° |
| 2026-05-06 16:09 | 23.01925 | -78.76567 | 35041 ft | 511 kts | 140° |
| 2026-05-06 16:09 | 22.96311 | -78.71885 | 35037 ft | 511 kts | 140° |
| 2026-05-06 16:10 | 22.90677 | -78.67220 | 35037 ft | 511 kts | 140° |
| 2026-05-06 16:10 | 22.85090 | -78.62601 | 35036 ft | 511 kts | 140° |
| 2026-05-06 16:11 | 22.79474 | -78.57964 | 35039 ft | 510 kts | 140° |
| 2026-05-06 16:11 | 22.73881 | -78.53332 | 35039 ft | 511 kts | 140° |
| 2026-05-06 16:12 | 22.68348 | -78.48717 | 35038 ft | 509 kts | 140° |
| 2026-05-06 16:12 | 22.62845 | -78.44137 | 35039 ft | 509 kts | 140° |
| 2026-05-06 16:13 | 22.57289 | -78.39520 | 35038 ft | 509 kts | 140° |
| 2026-05-06 16:13 | 22.51759 | -78.34930 | 35038 ft | 509 kts | 140° |
| 2026-05-06 16:14 | 22.46208 | -78.30305 | 35039 ft | 509 kts | 140° |
| 2026-05-06 16:14 | 22.40686 | -78.25698 | 35039 ft | 509 kts | 140° |
| 2026-05-06 16:15 | 22.35261 | -78.21179 | 35039 ft | 508 kts | 140° |
| 2026-05-06 16:15 | 22.29838 | -78.16670 | 35039 ft | 508 kts | 140° |
| 2026-05-06 16:16 | 22.24297 | -78.12066 | 35040 ft | 508 kts | 140° |
| 2026-05-06 16:16 | 22.18857 | -78.07551 | 35040 ft | 507 kts | 140° |
| 2026-05-06 16:17 | 22.13317 | -78.02957 | 35040 ft | 507 kts | 140° |
| 2026-05-06 16:17 | 22.07909 | -77.98476 | 35041 ft | 507 kts | 140° |
| 2026-05-06 16:18 | 22.02406 | -77.93926 | 35040 ft | 507 kts | 140° |
| 2026-05-06 16:18 | 21.96922 | -77.89393 | 35045 ft | 507 kts | 140° |
| 2026-05-06 16:19 | 21.91577 | -77.84981 | 35043 ft | 506 kts | 140° |
| 2026-05-06 16:19 | 21.86342 | -77.80673 | 35042 ft | 506 kts | 140° |
| 2026-05-06 16:20 | 21.80950 | -77.76263 | 35044 ft | 506 kts | 140° |
| 2026-05-06 16:20 | 21.75543 | -77.71845 | 35045 ft | 506 kts | 140° |
| 2026-05-06 16:21 | 21.70167 | -77.67455 | 35050 ft | 506 kts | 140° |
| 2026-05-06 16:21 | 21.64700 | -77.62997 | 35055 ft | 507 kts | 140° |
| 2026-05-06 16:22 | 21.59138 | -77.58464 | 35053 ft | 507 kts | 140° |
| 2026-05-06 16:22 | 21.53601 | -77.53955 | 35052 ft | 507 kts | 140° |
| 2026-05-06 16:23 | 21.48057 | -77.49445 | 35052 ft | 507 kts | 140° |
| 2026-05-06 16:23 | 21.42131 | -77.45521 | 35051 ft | 510 kts | 153° |
| 2026-05-06 16:24 | 21.36009 | -77.43209 | 35050 ft | 512 kts | 166° |
| 2026-05-06 16:24 | 21.29226 | -77.42308 | 35051 ft | 513 kts | 180° |
| 2026-05-06 16:25 | 21.22073 | -77.42521 | 35054 ft | 512 kts | 182° |
| 2026-05-06 16:25 | 21.14994 | -77.42817 | 35051 ft | 512 kts | 182° |
| 2026-05-06 16:26 | 21.07812 | -77.43066 | 35051 ft | 511 kts | 182° |
| 2026-05-06 16:26 | 21.00671 | -77.43286 | 35051 ft | 512 kts | 182° |
| 2026-05-06 16:27 | 20.93548 | -77.43504 | 35051 ft | 512 kts | 182° |
| 2026-05-06 16:27 | 20.86419 | -77.43720 | 35047 ft | 512 kts | 182° |
| 2026-05-06 16:28 | 20.79299 | -77.43935 | 35043 ft | 511 kts | 181° |
| 2026-05-06 16:28 | 20.72173 | -77.44153 | 35040 ft | 511 kts | 182° |
| 2026-05-06 16:29 | 20.65064 | -77.44372 | 35041 ft | 510 kts | 181° |
| 2026-05-06 16:29 | 20.57957 | -77.44589 | 35040 ft | 510 kts | 182° |
| 2026-05-06 16:30 | 20.52048 | -77.44757 | 35041 ft | 510 kts | 181° |
| 2026-05-06 16:30 | 20.43922 | -77.44955 | 35039 ft | 509 kts | 181° |
| 2026-05-06 16:31 | 20.37249 | -77.45121 | 35040 ft | 509 kts | 181° |
| 2026-05-06 16:31 | 20.30280 | -77.45295 | 35039 ft | 508 kts | 181° |
| 2026-05-06 16:32 | 20.23620 | -77.45466 | 35042 ft | 509 kts | 181° |
| 2026-05-06 16:32 | 20.16452 | -77.45649 | 35045 ft | 509 kts | 181° |
| 2026-05-06 16:33 | 20.09373 | -77.45829 | 35050 ft | 508 kts | 181° |
| 2026-05-06 16:34 | 19.98744 | -77.46101 | 35061 ft | 507 kts | 181° |
| 2026-05-06 16:34 | 19.91605 | -77.46282 | 35055 ft | 508 kts | 181° |
| 2026-05-06 16:35 | 19.84576 | -77.46461 | 35051 ft | 508 kts | 181° |
| 2026-05-06 16:35 | 19.78146 | -77.46627 | 35044 ft | 508 kts | 181° |
| 2026-05-06 16:36 | 19.71527 | -77.46796 | 35038 ft | 507 kts | 181° |
| 2026-05-06 16:36 | 19.64399 | -77.46983 | 35037 ft | 508 kts | 181° |
| 2026-05-06 16:37 | 19.57420 | -77.47148 | 35035 ft | 507 kts | 180° |
| 2026-05-06 16:37 | 19.50369 | -77.46774 | 35031 ft | 507 kts | 173° |
| 2026-05-06 16:38 | 19.43517 | -77.45567 | 35032 ft | 506 kts | 166° |
| 2026-05-06 16:38 | 19.36840 | -77.43616 | 35034 ft | 505 kts | 161° |
| 2026-05-06 16:39 | 19.30176 | -77.41491 | 35031 ft | 505 kts | 161° |
| 2026-05-06 16:39 | 19.23584 | -77.39405 | 35033 ft | 505 kts | 161° |
| 2026-05-06 16:40 | 19.16843 | -77.37287 | 35032 ft | 505 kts | 161° |
| 2026-05-06 16:40 | 19.10155 | -77.35191 | 35031 ft | 505 kts | 161° |
| 2026-05-06 16:41 | 19.03777 | -77.33195 | 35032 ft | 505 kts | 162° |
| 2026-05-06 16:41 | 18.97028 | -77.31086 | 35028 ft | 505 kts | 162° |
| 2026-05-06 16:42 | 18.90256 | -77.28972 | 35028 ft | 505 kts | 162° |
| 2026-05-06 16:42 | 18.84589 | -77.27203 | 35027 ft | 505 kts | 162° |
| 2026-05-06 16:43 | 18.78056 | -77.25166 | 35026 ft | 505 kts | 162° |
| 2026-05-06 16:43 | 18.71348 | -77.23077 | 35020 ft | 504 kts | 162° |
| 2026-05-06 16:44 | 18.64611 | -77.20978 | 35019 ft | 504 kts | 162° |
| 2026-05-06 16:44 | 18.57965 | -77.18909 | 35015 ft | 503 kts | 162° |
| 2026-05-06 16:45 | 18.51272 | -77.16830 | 35015 ft | 504 kts | 162° |
| 2026-05-06 16:45 | 18.44574 | -77.14750 | 35023 ft | 504 kts | 162° |
| 2026-05-06 16:46 | 18.37807 | -77.12650 | 35046 ft | 505 kts | 162° |
| 2026-05-06 16:46 | 18.31211 | -77.10607 | 35062 ft | 505 kts | 161° |
| 2026-05-06 16:47 | 18.24484 | -77.08521 | 35085 ft | 505 kts | 161° |
| 2026-05-06 16:47 | 18.17727 | -77.06428 | 35087 ft | 504 kts | 161° |
| 2026-05-06 16:48 | 18.10988 | -77.04345 | 35067 ft | 504 kts | 162° |
| 2026-05-06 16:48 | 18.04312 | -77.02283 | 35040 ft | 503 kts | 161° |
| 2026-05-06 16:49 | 17.97583 | -77.00205 | 35016 ft | 504 kts | 161° |
| 2026-05-06 16:49 | 17.90883 | -76.98141 | 35008 ft | 504 kts | 161° |
| 2026-05-06 16:50 | 17.84126 | -76.96060 | 35015 ft | 503 kts | 161° |
| 2026-05-06 16:50 | 17.77407 | -76.93990 | 35006 ft | 503 kts | 161° |
| 2026-05-06 16:51 | 17.70656 | -76.91907 | 35010 ft | 503 kts | 161° |
| 2026-05-06 16:51 | 17.63960 | -76.89844 | 35005 ft | 504 kts | 161° |
| 2026-05-06 16:52 | 17.57203 | -76.87766 | 35006 ft | 503 kts | 161° |
| 2026-05-06 16:52 | 17.50472 | -76.85700 | 35007 ft | 503 kts | 161° |
| 2026-05-06 16:53 | 17.43750 | -76.83639 | 35012 ft | 502 kts | 161° |
| 2026-05-06 16:53 | 17.37013 | -76.81574 | 35008 ft | 502 kts | 161° |
| 2026-05-06 16:54 | 17.30300 | -76.79517 | 35012 ft | 502 kts | 161° |
| 2026-05-06 16:54 | 17.23573 | -76.77458 | 35013 ft | 502 kts | 161° |
| 2026-05-06 16:55 | 17.16866 | -76.75406 | 35012 ft | 502 kts | 161° |
| 2026-05-06 16:55 | 17.10129 | -76.73347 | 35015 ft | 502 kts | 161° |
| 2026-05-06 16:56 | 17.03429 | -76.71301 | 35014 ft | 502 kts | 161° |
| 2026-05-06 16:56 | 16.96716 | -76.69253 | 35017 ft | 501 kts | 161° |
| 2026-05-06 16:57 | 16.89984 | -76.67200 | 35011 ft | 501 kts | 161° |
| 2026-05-06 16:57 | 16.83305 | -76.65166 | 35002 ft | 501 kts | 161° |
| 2026-05-06 16:58 | 16.76553 | -76.63111 | 35004 ft | 501 kts | 161° |
| 2026-05-06 16:58 | 16.69840 | -76.61071 | 35002 ft | 501 kts | 161° |
| 2026-05-06 16:59 | 16.63165 | -76.59042 | 35001 ft | 500 kts | 161° |
| 2026-05-06 16:59 | 16.56466 | -76.57001 | 35001 ft | 501 kts | 161° |
| 2026-05-06 17:00 | 16.49828 | -76.54981 | 35002 ft | 500 kts | 161° |
| 2026-05-06 17:00 | 16.43158 | -76.52956 | 35003 ft | 500 kts | 161° |
| 2026-05-06 17:01 | 16.36537 | -76.50947 | 35001 ft | 500 kts | 161° |
| 2026-05-06 17:01 | 16.29902 | -76.48937 | 35001 ft | 499 kts | 161° |
| 2026-05-06 17:02 | 16.23211 | -76.46910 | 35000 ft | 499 kts | 161° |
| 2026-05-06 17:02 | 16.16501 | -76.44879 | 35000 ft | 499 kts | 161° |
| 2026-05-06 17:03 | 16.09838 | -76.42864 | 34998 ft | 499 kts | 161° |
| 2026-05-06 17:03 | 16.03102 | -76.40828 | 34996 ft | 499 kts | 161° |
| 2026-05-06 17:04 | 15.96392 | -76.38802 | 35000 ft | 498 kts | 161° |
| 2026-05-06 17:04 | 15.89763 | -76.36802 | 34998 ft | 499 kts | 161° |
| 2026-05-06 17:05 | 15.83070 | -76.34783 | 34996 ft | 497 kts | 161° |
| 2026-05-06 17:05 | 15.76357 | -76.32760 | 34992 ft | 497 kts | 161° |
| 2026-05-06 17:06 | 15.69947 | -76.30830 | 34995 ft | 497 kts | 161° |
| 2026-05-06 17:06 | 15.63245 | -76.28812 | 34991 ft | 497 kts | 161° |
| 2026-05-06 17:07 | 15.56544 | -76.26798 | 34989 ft | 497 kts | 161° |
| 2026-05-06 17:07 | 15.50192 | -76.24889 | 34991 ft | 497 kts | 161° |
| 2026-05-06 17:08 | 15.44559 | -76.23196 | 34987 ft | 497 kts | 161° |
| 2026-05-06 17:08 | 15.38867 | -76.21489 | 34987 ft | 496 kts | 161° |
| 2026-05-06 17:09 | 15.33181 | -76.19783 | 34981 ft | 496 kts | 161° |
| 2026-05-06 17:09 | 15.27404 | -76.18050 | 34982 ft | 496 kts | 161° |
| 2026-05-06 17:10 | 15.21689 | -76.16338 | 34982 ft | 496 kts | 161° |
| 2026-05-06 17:10 | 15.15947 | -76.14619 | 34981 ft | 496 kts | 161° |
| 2026-05-06 17:11 | 15.10171 | -76.12891 | 34981 ft | 496 kts | 161° |
| 2026-05-06 17:11 | 15.04491 | -76.11196 | 34980 ft | 496 kts | 161° |
| 2026-05-06 17:12 | 14.98775 | -76.09486 | 34980 ft | 496 kts | 161° |
| 2026-05-06 17:12 | 14.92987 | -76.07703 | 34978 ft | 496 kts | 161° |
| 2026-05-06 17:13 | 14.87313 | -76.05944 | 34973 ft | 495 kts | 161° |
| 2026-05-06 17:13 | 14.81547 | -76.04165 | 34972 ft | 496 kts | 161° |
| 2026-05-06 17:14 | 14.75853 | -76.02414 | 34973 ft | 495 kts | 161° |
| 2026-05-06 17:14 | 14.70142 | -76.00659 | 34970 ft | 496 kts | 161° |
| 2026-05-06 17:15 | 14.64475 | -75.98920 | 34971 ft | 495 kts | 161° |
| 2026-05-06 17:15 | 14.58740 | -75.97160 | 34968 ft | 494 kts | 161° |
| 2026-05-06 17:16 | 14.53043 | -75.95412 | 34964 ft | 494 kts | 161° |
| 2026-05-06 17:16 | 14.47475 | -75.93706 | 34960 ft | 494 kts | 161° |
| 2026-05-06 17:17 | 14.41827 | -75.91975 | 34958 ft | 494 kts | 161° |
| 2026-05-06 17:17 | 14.35555 | -75.90055 | 34962 ft | 493 kts | 161° |
| 2026-05-06 17:18 | 14.29218 | -75.88116 | 34962 ft | 494 kts | 161° |
| 2026-05-06 17:18 | 14.22840 | -75.86166 | 34962 ft | 494 kts | 161° |
| 2026-05-06 17:19 | 14.16485 | -75.84224 | 34961 ft | 493 kts | 161° |
| 2026-05-06 17:19 | 14.10162 | -75.82292 | 34959 ft | 493 kts | 161° |
| 2026-05-06 17:20 | 14.03778 | -75.80344 | 34957 ft | 492 kts | 161° |
| 2026-05-06 17:20 | 13.97438 | -75.78408 | 34956 ft | 492 kts | 161° |
| 2026-05-06 17:21 | 13.91094 | -75.76475 | 34954 ft | 492 kts | 162° |
| 2026-05-06 17:21 | 13.84838 | -75.74567 | 34952 ft | 493 kts | 162° |
| 2026-05-06 17:22 | 13.78437 | -75.72616 | 34944 ft | 492 kts | 162° |
| 2026-05-06 17:22 | 13.72258 | -75.70736 | 34943 ft | 492 kts | 162° |
| 2026-05-06 17:23 | 13.65986 | -75.68829 | 34944 ft | 493 kts | 162° |
| 2026-05-06 17:23 | 13.59745 | -75.66933 | 34940 ft | 493 kts | 162° |
| 2026-05-06 17:24 | 13.53482 | -75.65028 | 34936 ft | 493 kts | 162° |
| 2026-05-06 17:24 | 13.47239 | -75.63132 | 34935 ft | 493 kts | 162° |
| 2026-05-06 17:25 | 13.40997 | -75.61237 | 34935 ft | 493 kts | 162° |
| 2026-05-06 17:25 | 13.34847 | -75.59370 | 34929 ft | 493 kts | 162° |
| 2026-05-06 17:26 | 13.28608 | -75.57480 | 34926 ft | 493 kts | 162° |
| 2026-05-06 17:26 | 13.22323 | -75.55575 | 34922 ft | 493 kts | 163° |
| 2026-05-06 17:27 | 13.16073 | -75.53681 | 34918 ft | 493 kts | 163° |
| 2026-05-06 17:27 | 13.09838 | -75.51794 | 34919 ft | 493 kts | 163° |
| 2026-05-06 17:28 | 13.03619 | -75.49911 | 34913 ft | 493 kts | 163° |
| 2026-05-06 17:28 | 12.97343 | -75.48014 | 34917 ft | 493 kts | 163° |
| 2026-05-06 17:29 | 12.91138 | -75.46139 | 34912 ft | 493 kts | 163° |
| 2026-05-06 17:29 | 12.84926 | -75.44263 | 34912 ft | 492 kts | 163° |
| 2026-05-06 17:30 | 12.78691 | -75.42380 | 34909 ft | 491 kts | 163° |
| 2026-05-06 17:30 | 12.72523 | -75.40518 | 34908 ft | 492 kts | 163° |
| 2026-05-06 17:31 | 12.66366 | -75.38661 | 34911 ft | 490 kts | 163° |
| 2026-05-06 17:31 | 12.60224 | -75.36809 | 34908 ft | 491 kts | 163° |
| 2026-05-06 17:32 | 12.54073 | -75.34956 | 34905 ft | 490 kts | 163° |
| 2026-05-06 17:32 | 12.47974 | -75.33119 | 34905 ft | 490 kts | 164° |
| 2026-05-06 17:33 | 12.41758 | -75.31248 | 34904 ft | 489 kts | 164° |
| 2026-05-06 17:33 | 12.36718 | -75.29732 | 34900 ft | 489 kts | 164° |
| 2026-05-06 17:34 | 12.30526 | -75.27869 | 34898 ft | 488 kts | 164° |
| 2026-05-06 17:34 | 12.24406 | -75.26030 | 34898 ft | 488 kts | 164° |
| 2026-05-06 17:35 | 12.18195 | -75.24164 | 34898 ft | 488 kts | 164° |
| 2026-05-06 17:35 | 12.12074 | -75.22325 | 34894 ft | 488 kts | 164° |
| 2026-05-06 17:36 | 12.02888 | -75.19569 | 34895 ft | 487 kts | 164° |
| 2026-05-06 17:36 | 11.96756 | -75.17732 | 34895 ft | 487 kts | 164° |
| 2026-05-06 17:37 | 11.90539 | -75.15868 | 34895 ft | 486 kts | 164° |
| 2026-05-06 17:37 | 11.84403 | -75.14030 | 34894 ft | 486 kts | 164° |
| 2026-05-06 17:38 | 11.78256 | -75.12189 | 34891 ft | 486 kts | 164° |
| 2026-05-06 17:38 | 11.72147 | -75.10363 | 34888 ft | 486 kts | 164° |
| 2026-05-06 17:39 | 11.66081 | -75.08549 | 34889 ft | 486 kts | 164° |
| 2026-05-06 17:39 | 11.59869 | -75.06848 | 34886 ft | 486 kts | 166° |
| 2026-05-06 17:40 | 11.53702 | -75.05266 | 34889 ft | 485 kts | 167° |
| 2026-05-06 17:40 | 11.47572 | -75.03686 | 34891 ft | 485 kts | 166° |
| 2026-05-06 17:41 | 11.41426 | -75.02091 | 34883 ft | 485 kts | 166° |
| 2026-05-06 17:41 | 11.35323 | -75.00505 | 34881 ft | 485 kts | 166° |
| 2026-05-06 17:42 | 11.29144 | -74.98898 | 34879 ft | 485 kts | 166° |
| 2026-05-06 17:42 | 11.23046 | -74.97312 | 34882 ft | 485 kts | 166° |
| 2026-05-06 17:43 | 11.16848 | -74.95700 | 34878 ft | 485 kts | 166° |
| 2026-05-06 17:43 | 11.10733 | -74.94109 | 34881 ft | 484 kts | 166° |
| 2026-05-06 17:44 | 11.04686 | -74.92539 | 34878 ft | 484 kts | 167° |
| 2026-05-06 17:44 | 10.98608 | -74.90963 | 34879 ft | 484 kts | 166° |
| 2026-05-06 17:45 | 10.92900 | -74.89484 | 34873 ft | 484 kts | 166° |
| 2026-05-06 17:45 | 10.87499 | -74.88084 | 34877 ft | 484 kts | 167° |